Time;durP1;ratioP1;P1;durP2;ratioP2;P2;SDS_P1;SDS_P2;PMS_P1;PMS_P2;Temp;Humidity;BMP_temperature;BMP_pressure;BME280_temperature;BME280_humidity;BME280_pressure;Samples;Min_cycle;Max_cycle;Signal;HPM_P1;HPM_P2
2022/03/15 00:01:23;;;;;;;11.10;9.50;;;;;;;;;;4986005;28;21013;-53
2022/03/15 00:03:49;;;;;;;16.30;8.97;;;;;;;;;;4982297;28;20418;-54
2022/03/15 00:06:15;;;;;;;15.30;9.33;;;;;;;;;;4981209;28;20438;-54
2022/03/15 00:08:44;;;;;;;10.17;8.03;;;;;;;;;;4985929;28;20921;-54
2022/03/15 00:11:10;;;;;;;9.93;7.93;;;;;;;;;;4982282;28;20549;-53
2022/03/15 00:13:39;;;;;;;18.60;9.43;;;;;;;;;;4982469;28;20920;-53
2022/03/15 00:16:06;;;;;;;8.90;8.00;;;;;;;;;;4985611;28;20492;-54
2022/03/15 00:18:32;;;;;;;9.60;8.00;;;;;;;;;;4985616;28;20450;-54
2022/03/15 00:20:58;;;;;;;14.40;8.50;;;;;;;;;;4982448;28;20485;-54
2022/03/15 00:23:24;;;;;;;9.10;7.70;;;;;;;;;;4982020;28;20424;-54
2022/03/15 00:25:52;;;;;;;15.73;8.83;;;;;;;;;;4984314;28;20431;-54
2022/03/15 00:28:18;;;;;;;9.80;7.57;;;;;;;;;;4985455;28;20421;-54
2022/03/15 00:30:44;;;;;;;12.70;8.70;;;;;;;;;;4966634;28;20466;-54
2022/03/15 00:33:11;;;;;;;8.30;7.37;;;;;;;;;;4981865;28;20427;-53
2022/03/15 00:35:37;;;;;;;18.40;9.37;;;;;;;;;;4982317;28;20446;-54
2022/03/15 00:38:03;;;;;;;13.10;8.03;;;;;;;;;;4985420;28;20799;-54
2022/03/15 00:40:29;;;;;;;19.90;7.10;;;;;;;;;;4985202;28;20422;-54
2022/03/15 00:42:55;;;;;;;9.03;7.43;;;;;;;;;;4982595;28;20434;-54
2022/03/15 00:45:25;;;;;;;11.63;7.63;;;;;;;;;;4981712;28;20431;-54
2022/03/15 00:47:54;;;;;;;12.80;7.93;;;;;;;;;;4983634;28;20800;-54
2022/03/15 00:50:20;;;;;;;10.87;6.80;;;;;;;;;;4985006;28;20556;-53
2022/03/15 00:52:46;;;;;;;10.67;7.90;;;;;;;;;;4983281;28;20453;-54
2022/03/15 00:55:12;;;;;;;10.23;6.20;;;;;;;;;;4981605;28;20834;-53
2022/03/15 00:57:39;;;;;;;14.60;8.77;;;;;;;;;;4989585;28;20426;-54
2022/03/15 01:00:06;;;;;;;13.60;8.10;;;;;;;;;;4981261;28;20819;-54
2022/03/15 01:02:32;;;;;;;8.70;7.00;;;;;;;;;;4981407;28;20583;-54
2022/03/15 01:04:58;;;;;;;9.47;7.07;;;;;;;;;;4984382;28;21193;-54
2022/03/15 01:07:24;;;;;;;11.00;7.00;;;;;;;;;;4981818;28;20510;-54
2022/03/15 01:09:50;;;;;;;11.00;7.50;;;;;;;;;;4983085;28;20498;-54
2022/03/15 01:12:16;;;;;;;9.20;7.00;;;;;;;;;;4984695;28;20423;-54
2022/03/15 01:14:42;;;;;;;9.27;7.00;;;;;;;;;;4982946;28;20433;-54
2022/03/15 01:17:08;;;;;;;10.03;6.50;;;;;;;;;;4963904;28;20687;-54
2022/03/15 01:19:34;;;;;;;11.83;7.87;;;;;;;;;;4980915;28;20430;-54
2022/03/15 01:22:00;;;;;;;8.33;6.40;;;;;;;;;;4984381;28;20418;-54
2022/03/15 01:24:27;;;;;;;22.77;7.80;;;;;;;;;;4984179;28;20838;-54
2022/03/15 01:26:53;;;;;;;20.53;8.27;;;;;;;;;;4981923;28;20509;-54
2022/03/15 01:29:20;;;;;;;10.70;7.43;;;;;;;;;;4980721;28;20569;-54
2022/03/15 01:31:47;;;;;;;9.90;7.47;;;;;;;;;;4982309;28;20864;-54
2022/03/15 01:34:13;;;;;;;12.27;6.97;;;;;;;;;;4984035;28;20425;-54
2022/03/15 01:36:39;;;;;;;17.73;8.37;;;;;;;;;;4983630;28;20430;-54
2022/03/15 01:39:06;;;;;;;13.53;6.33;;;;;;;;;;4985030;28;20470;-53
2022/03/15 01:41:35;;;;;;;12.93;7.50;;;;;;;;;;4980652;28;20423;-54
2022/03/15 01:44:01;;;;;;;8.60;7.30;;;;;;;;;;4983936;28;20415;-53
2022/03/15 01:46:27;;;;;;;10.30;6.40;;;;;;;;;;4983894;28;20428;-53
2022/03/15 01:48:53;;;;;;;7.95;6.95;;;;;;;;;;4981380;28;20808;-53
2022/03/15 01:51:20;;;;;;;13.50;6.90;;;;;;;;;;4980556;28;20461;-53
2022/03/15 01:53:46;;;;;;;8.53;6.63;;;;;;;;;;4981886;28;20483;-52
2022/03/15 01:56:13;;;;;;;11.97;6.40;;;;;;;;;;4983519;28;20840;-54
2022/03/15 01:58:38;;;;;;;10.40;7.70;;;;;;;;;;4983734;28;20443;-55
2022/03/15 02:01:05;;;;;;;24.27;6.67;;;;;;;;;;4983739;28;20818;-55
2022/03/15 02:03:32;;;;;;;7.90;6.77;;;;;;;;;;4983718;28;20435;-55
2022/03/15 02:05:59;;;;;;;10.10;6.83;;;;;;;;;;4962842;28;20813;-55
2022/03/15 02:08:25;;;;;;;12.93;6.67;;;;;;;;;;4982980;28;20548;-55
2022/03/15 02:10:51;;;;;;;8.73;6.20;;;;;;;;;;4981212;28;20774;-55
2022/03/15 02:13:17;;;;;;;7.47;6.77;;;;;;;;;;4980355;28;20469;-53
2022/03/15 02:15:43;;;;;;;8.90;7.00;;;;;;;;;;4963678;28;20426;-54
2022/03/15 02:18:09;;;;;;;9.67;6.90;;;;;;;;;;4983546;28;20496;-54
2022/03/15 02:20:35;;;;;;;9.17;6.23;;;;;;;;;;4983421;28;20778;-54
2022/03/15 02:23:01;;;;;;;12.33;7.33;;;;;;;;;;4966133;28;20458;-54
2022/03/15 02:25:27;;;;;;;7.37;6.20;;;;;;;;;;4982819;28;20810;-55
2022/03/15 02:27:53;;;;;;;11.07;7.60;;;;;;;;;;4980728;28;20553;-55
2022/03/15 02:30:21;;;;;;;9.00;6.73;;;;;;;;;;4979721;28;20603;-54
2022/03/15 02:32:48;;;;;;;12.00;7.50;;;;;;;;;;4981647;28;20415;-55
2022/03/15 02:35:15;;;;;;;10.03;7.60;;;;;;;;;;4983626;28;20795;-55
2022/03/15 02:37:41;;;;;;;13.17;6.70;;;;;;;;;;4978858;28;20427;-55
2022/03/15 02:40:07;;;;;;;10.00;6.63;;;;;;;;;;4965678;28;20418;-54
2022/03/15 02:42:33;;;;;;;9.07;6.90;;;;;;;;;;4983244;28;20801;-54
2022/03/15 02:45:00;;;;;;;8.00;7.20;;;;;;;;;;4979903;28;20784;-55
2022/03/15 02:47:26;;;;;;;10.33;7.13;;;;;;;;;;4979988;28;20426;-52
2022/03/15 02:49:53;;;;;;;8.53;6.73;;;;;;;;;;4982118;28;20455;-53
2022/03/15 02:52:19;;;;;;;18.17;6.60;;;;;;;;;;4983012;28;20484;-53
2022/03/15 02:54:45;;;;;;;15.50;8.23;;;;;;;;;;4981727;28;20418;-53
2022/03/15 02:57:12;;;;;;;9.57;7.03;;;;;;;;;;4984614;28;20513;-53
2022/03/15 02:59:39;;;;;;;9.93;6.97;;;;;;;;;;4982580;28;20461;-54
2022/03/15 03:02:06;;;;;;;9.27;7.80;;;;;;;;;;4979630;28;20431;-54
2022/03/15 03:04:32;;;;;;;8.60;6.87;;;;;;;;;;4979818;28;20422;-53
2022/03/15 03:07:01;;;;;;;8.73;6.97;;;;;;;;;;4965223;28;20556;-54
2022/03/15 03:09:28;;;;;;;16.30;6.97;;;;;;;;;;4979614;28;20829;-54
2022/03/15 03:11:54;;;;;;;7.67;6.57;;;;;;;;;;4982192;28;20431;-53
2022/03/15 03:14:21;;;;;;;14.63;8.20;;;;;;;;;;4983349;28;20423;-54
2022/03/15 03:16:47;;;;;;;12.87;8.40;;;;;;;;;;4981259;28;20449;-54
2022/03/15 03:19:13;;;;;;;10.90;7.20;;;;;;;;;;4979869;28;20415;-54
2022/03/15 03:21:40;;;;;;;10.83;8.47;;;;;;;;;;4979944;28;20923;-54
2022/03/15 03:24:06;;;;;;;15.00;8.27;;;;;;;;;;4982990;28;20418;-54
2022/03/15 03:26:37;;;;;;;13.37;8.57;;;;;;;;;;4982847;28;20430;-54
2022/03/15 03:29:06;;;;;;;15.17;8.03;;;;;;;;;;4987111;28;20426;-55
2022/03/15 03:31:32;;;;;;;14.07;8.43;;;;;;;;;;4979301;28;20415;-54
2022/03/15 03:33:58;;;;;;;16.90;8.57;;;;;;;;;;4982543;28;20418;-54
2022/03/15 03:36:24;;;;;;;11.40;7.90;;;;;;;;;;4982709;28;20429;-54
2022/03/15 03:38:51;;;;;;;18.50;8.30;;;;;;;;;;4983754;28;20418;-53
2022/03/15 03:41:17;;;;;;;15.00;8.37;;;;;;;;;;4982936;28;20434;-53
2022/03/15 03:43:43;;;;;;;10.83;7.50;;;;;;;;;;4984058;28;20965;-54
2022/03/15 03:46:09;;;;;;;18.97;9.20;;;;;;;;;;4985998;28;20510;-54
2022/03/15 03:48:35;;;;;;;15.57;8.57;;;;;;;;;;4986242;28;20426;-54
2022/03/15 03:51:02;;;;;;;9.43;7.37;;;;;;;;;;4990635;28;20458;-54
2022/03/15 03:53:28;;;;;;;14.87;8.80;;;;;;;;;;4982765;28;20973;-54
2022/03/15 03:55:54;;;;;;;9.20;7.50;;;;;;;;;;4985112;28;20937;-53
2022/03/15 03:58:20;;;;;;;12.83;9.23;;;;;;;;;;4988067;28;20431;-54
2022/03/15 04:00:46;;;;;;;13.27;7.70;;;;;;;;;;4983905;28;20435;-54
2022/03/15 04:03:16;;;;;;;12.80;8.30;;;;;;;;;;4985962;28;20833;-53
2022/03/15 04:05:43;;;;;;;13.73;8.13;;;;;;;;;;4984897;28;20571;-54
2022/03/15 04:08:10;;;;;;;14.50;7.63;;;;;;;;;;4969554;28;20434;-54
2022/03/15 04:10:37;;;;;;;14.37;8.40;;;;;;;;;;4968057;28;20544;-53
2022/03/15 04:13:04;;;;;;;13.00;8.67;;;;;;;;;;4982407;28;20469;-54
2022/03/15 04:15:32;;;;;;;14.07;8.13;;;;;;;;;;4982383;28;20506;-55
2022/03/15 04:17:58;;;;;;;13.27;8.70;;;;;;;;;;4985102;28;20780;-54
2022/03/15 04:20:24;;;;;;;9.93;7.30;;;;;;;;;;4985539;28;20419;-53
2022/03/15 04:22:50;;;;;;;9.60;8.17;;;;;;;;;;4983468;28;20565;-54
2022/03/15 04:25:16;;;;;;;17.07;9.93;;;;;;;;;;4982211;28;20454;-54
2022/03/15 04:27:42;;;;;;;14.70;8.33;;;;;;;;;;4983092;28;20567;-53
2022/03/15 04:30:09;;;;;;;14.53;7.53;;;;;;;;;;4985303;28;20537;-53
2022/03/15 04:32:35;;;;;;;14.63;8.07;;;;;;;;;;4985204;28;20422;-53
2022/03/15 04:35:01;;;;;;;12.03;8.03;;;;;;;;;;4985718;28;20978;-53
2022/03/15 04:37:27;;;;;;;10.90;7.70;;;;;;;;;;4981793;28;20907;-55
2022/03/15 04:39:53;;;;;;;17.47;8.90;;;;;;;;;;4984033;28;20426;-55
2022/03/15 04:42:19;;;;;;;18.37;8.70;;;;;;;;;;4985110;28;20545;-54
2022/03/15 04:44:45;;;;;;;12.60;6.60;;;;;;;;;;4983660;28;20430;-54
2022/03/15 04:47:11;;;;;;;14.50;8.97;;;;;;;;;;4981646;28;20426;-54
2022/03/15 04:49:37;;;;;;;17.43;8.33;;;;;;;;;;4981096;28;20231;-54
2022/03/15 04:52:04;;;;;;;11.33;9.27;;;;;;;;;;4984734;28;20507;-54
2022/03/15 04:54:30;;;;;;;17.87;10.10;;;;;;;;;;4985037;28;20509;-55
2022/03/15 04:56:56;;;;;;;13.33;8.40;;;;;;;;;;4984697;28;20433;-54
2022/03/15 04:59:22;;;;;;;15.70;7.97;;;;;;;;;;4984773;28;20900;-54
2022/03/15 05:01:48;;;;;;;11.50;7.50;;;;;;;;;;4982905;28;20435;-54
2022/03/15 05:04:15;;;;;;;10.60;7.60;;;;;;;;;;4981482;28;20826;-55
2022/03/15 05:06:41;;;;;;;12.73;8.00;;;;;;;;;;4982201;28;20434;-54
2022/03/15 05:09:07;;;;;;;14.20;7.90;;;;;;;;;;4984070;28;20430;-54
2022/03/15 05:11:34;;;;;;;10.80;7.93;;;;;;;;;;4963740;28;20439;-55
2022/03/15 05:14:00;;;;;;;12.17;8.50;;;;;;;;;;4984595;28;20429;-53
2022/03/15 05:16:26;;;;;;;17.73;9.03;;;;;;;;;;4984370;28;20437;-53
2022/03/15 05:18:54;;;;;;;18.90;10.03;;;;;;;;;;4982317;28;20425;-54
2022/03/15 05:21:25;;;;;;;16.63;9.07;;;;;;;;;;4980110;28;20854;-55
2022/03/15 05:23:52;;;;;;;14.03;9.47;;;;;;;;;;4984448;28;20442;-56
2022/03/15 05:26:18;;;;;;;14.83;8.40;;;;;;;;;;4984804;28;20429;-55
2022/03/15 05:28:45;;;;;;;12.77;8.50;;;;;;;;;;4983770;28;20517;-56
2022/03/15 05:31:11;;;;;;;17.60;9.30;;;;;;;;;;4981502;28;20484;-55
2022/03/15 05:33:37;;;;;;;25.93;10.10;;;;;;;;;;4981344;28;20423;-56
2022/03/15 05:36:03;;;;;;;17.80;10.50;;;;;;;;;;4984304;28;20423;-56
2022/03/15 05:38:29;;;;;;;19.17;9.67;;;;;;;;;;4983570;28;20935;-56
2022/03/15 05:40:55;;;;;;;16.33;9.20;;;;;;;;;;4983019;28;20414;-56
2022/03/15 05:43:22;;;;;;;18.83;10.67;;;;;;;;;;4981724;28;20819;-55
2022/03/15 05:45:48;;;;;;;18.47;9.10;;;;;;;;;;4983472;28;20524;-55
2022/03/15 05:48:14;;;;;;;16.50;11.00;;;;;;;;;;4985047;28;20993;-55
2022/03/15 05:50:40;;;;;;;15.73;9.50;;;;;;;;;;4984222;28;20797;-58
2022/03/15 05:53:07;;;;;;;17.63;10.30;;;;;;;;;;4963385;28;20467;-57
2022/03/15 05:55:34;;;;;;;16.37;9.67;;;;;;;;;;4981642;28;20544;-56
2022/03/15 05:58:00;;;;;;;18.43;9.33;;;;;;;;;;4989321;28;20518;-58
2022/03/15 06:00:27;;;;;;;18.90;10.33;;;;;;;;;;4981279;28;20789;-57
2022/03/15 06:02:53;;;;;;;20.67;9.20;;;;;;;;;;4983672;28;20442;-57
2022/03/15 06:05:19;;;;;;;16.93;10.00;;;;;;;;;;4984958;28;20457;-56
2022/03/15 06:07:49;;;;;;;22.33;10.00;;;;;;;;;;4979754;28;20478;-56
2022/03/15 06:10:16;;;;;;;21.03;10.97;;;;;;;;;;4984783;28;20487;-57
2022/03/15 06:12:43;;;;;;;18.23;9.43;;;;;;;;;;4983201;28;20437;-55
2022/03/15 06:15:09;;;;;;;16.43;9.27;;;;;;;;;;4979585;28;20419;-56
2022/03/15 06:17:44;;;;;;;18.17;8.07;;;;;;;;;;4979031;28;20423;-56
2022/03/15 06:20:13;;;;;;;15.67;9.73;;;;;;;;;;4982340;28;20963;-56
2022/03/15 06:22:39;;;;;;;21.23;10.67;;;;;;;;;;4982977;28;20788;-55
2022/03/15 06:25:05;;;;;;;14.00;8.83;;;;;;;;;;4980085;28;20427;-55
2022/03/15 06:27:31;;;;;;;18.37;10.83;;;;;;;;;;4979824;28;20419;-56
2022/03/15 06:29:57;;;;;;;16.73;8.80;;;;;;;;;;4982708;28;20468;-55
2022/03/15 06:32:23;;;;;;;14.37;9.13;;;;;;;;;;4965829;28;20932;-55
2022/03/15 06:34:49;;;;;;;16.60;9.93;;;;;;;;;;4981429;28;20513;-56
2022/03/15 06:37:16;;;;;;;18.80;10.53;;;;;;;;;;4979935;28;20429;-55
2022/03/15 06:39:44;;;;;;;19.10;10.30;;;;;;;;;;4980762;28;20427;-55
2022/03/15 06:42:11;;;;;;;17.80;11.10;;;;;;;;;;4983208;28;20961;-55
2022/03/15 06:44:37;;;;;;;18.00;11.03;;;;;;;;;;4982797;28;20795;-55
2022/03/15 06:47:03;;;;;;;12.60;9.37;;;;;;;;;;4979779;28;20486;-55
2022/03/15 06:49:29;;;;;;;16.50;9.63;;;;;;;;;;4979642;28;20506;-55
2022/03/15 06:51:55;;;;;;;18.70;10.40;;;;;;;;;;4982369;28;20447;-55
2022/03/15 06:54:22;;;;;;;21.60;9.77;;;;;;;;;;4982829;28;20462;-55
2022/03/15 06:56:49;;;;;;;18.30;10.90;;;;;;;;;;4983210;28;20422;-55
2022/03/15 06:59:15;;;;;;;20.13;10.13;;;;;;;;;;4982876;28;20875;-56
2022/03/15 07:01:41;;;;;;;15.47;10.37;;;;;;;;;;4982161;28;20418;-56
2022/03/15 07:04:07;;;;;;;15.70;9.60;;;;;;;;;;4979681;28;20502;-55
2022/03/15 07:06:34;;;;;;;24.23;9.70;;;;;;;;;;4979599;28;20423;-55
2022/03/15 07:09:00;;;;;;;18.50;9.80;;;;;;;;;;4983029;28;20451;-56
2022/03/15 07:11:26;;;;;;;19.07;9.43;;;;;;;;;;4979615;28;20467;-55
2022/03/15 07:13:52;;;;;;;19.63;9.57;;;;;;;;;;4967333;28;20537;-54
2022/03/15 07:16:19;;;;;;;19.20;9.97;;;;;;;;;;4986944;28;20485;-55
2022/03/15 07:18:45;;;;;;;16.47;9.70;;;;;;;;;;4985399;28;20916;-55
2022/03/15 07:21:12;;;;;;;21.03;10.67;;;;;;;;;;4983398;28;21027;-55
2022/03/15 07:23:38;;;;;;;18.23;10.10;;;;;;;;;;4983489;28;20423;-55
2022/03/15 07:26:04;;;;;;;16.60;9.80;;;;;;;;;;4986744;28;20891;-55
2022/03/15 07:28:31;;;;;;;16.17;9.50;;;;;;;;;;4986624;28;20426;-55
2022/03/15 07:30:57;;;;;;;17.17;9.83;;;;;;;;;;4983489;28;20481;-55
2022/03/15 07:33:23;;;;;;;17.27;9.00;;;;;;;;;;4983128;28;20925;-55
2022/03/15 07:35:49;;;;;;;15.33;9.93;;;;;;;;;;4984949;28;20510;-56
2022/03/15 07:38:17;;;;;;;20.20;10.67;;;;;;;;;;4986351;28;20912;-55
2022/03/15 07:40:43;;;;;;;17.27;8.90;;;;;;;;;;4985600;28;20429;-55
2022/03/15 07:43:10;;;;;;;20.10;9.07;;;;;;;;;;4982961;28;20434;-55
2022/03/15 07:45:36;;;;;;;21.97;10.20;;;;;;;;;;4982765;28;20841;-55
2022/03/15 07:48:04;;;;;;;16.90;10.33;;;;;;;;;;4986264;28;20423;-55
2022/03/15 07:50:30;;;;;;;12.67;9.00;;;;;;;;;;4984626;28;20556;-55
2022/03/15 07:52:56;;;;;;;10.13;6.67;;;;;;;;;;4983412;28;20494;-55
2022/03/15 07:55:22;;;;;;;11.10;6.03;;;;;;;;;;4982973;28;20183;-55
2022/03/15 07:57:49;;;;;;;6.20;5.43;;;;;;;;;;4990759;28;20453;-55
2022/03/15 08:00:15;;;;;;;13.23;6.03;;;;;;;;;;4982694;28;20438;-54
2022/03/15 08:02:41;;;;;;;8.40;6.13;;;;;;;;;;4983352;28;20518;-55
2022/03/15 08:05:07;;;;;;;14.43;6.40;;;;;;;;;;4985722;28;20433;-55
2022/03/15 08:07:36;;;;;;;15.13;5.80;;;;;;;;;;4981823;28;20430;-55
2022/03/15 08:10:03;;;;;;;12.17;6.90;;;;;;;;;;4982559;28;20455;-55
2022/03/15 08:12:29;;;;;;;10.77;5.93;;;;;;;;;;4982509;28;20441;-55
2022/03/15 08:14:55;;;;;;;14.33;7.17;;;;;;;;;;4984981;28;20522;-55
2022/03/15 08:17:21;;;;;;;6.53;5.57;;;;;;;;;;4985795;28;20430;-55
2022/03/15 08:19:47;;;;;;;8.50;5.07;;;;;;;;;;4984156;28;20441;-55
2022/03/15 08:22:13;;;;;;;10.93;5.83;;;;;;;;;;4982672;28;20428;-55
2022/03/15 08:24:39;;;;;;;5.63;5.10;;;;;;;;;;4981527;28;20438;-55
2022/03/15 08:27:05;;;;;;;8.93;5.63;;;;;;;;;;4985647;28;20947;-55
2022/03/15 08:29:31;;;;;;;6.27;5.40;;;;;;;;;;4985289;28;20465;-55
2022/03/15 08:31:58;;;;;;;5.20;4.70;;;;;;;;;;4982582;28;20895;-55
2022/03/15 08:34:24;;;;;;;7.40;4.60;;;;;;;;;;4981922;28;20988;-55
2022/03/15 08:36:53;;;;;;;8.87;5.17;;;;;;;;;;4983981;28;20968;-55
2022/03/15 08:39:21;;;;;;;5.80;4.77;;;;;;;;;;4982970;28;20466;-55
2022/03/15 08:41:49;;;;;;;9.20;4.90;;;;;;;;;;4983459;28;20455;-55
2022/03/15 08:44:15;;;;;;;9.13;5.80;;;;;;;;;;4985285;28;20433;-55
2022/03/15 08:46:42;;;;;;;7.07;5.17;;;;;;;;;;4984357;28;20426;-55
2022/03/15 08:49:09;;;;;;;9.20;5.80;;;;;;;;;;4981677;28;20944;-55
2022/03/15 08:51:35;;;;;;;13.07;5.30;;;;;;;;;;4964407;28;20514;-55
2022/03/15 08:54:01;;;;;;;6.10;5.50;;;;;;;;;;4984768;28;20597;-55
2022/03/15 08:56:28;;;;;;;12.50;5.43;;;;;;;;;;4985037;28;20928;-55
2022/03/15 08:58:54;;;;;;;9.83;4.80;;;;;;;;;;4984664;28;20605;-55
2022/03/15 09:01:20;;;;;;;8.00;5.37;;;;;;;;;;4984690;28;20520;-55
2022/03/15 09:03:46;;;;;;;7.93;4.07;;;;;;;;;;4983460;28;20484;-55
2022/03/15 09:06:13;;;;;;;6.90;4.43;;;;;;;;;;4981375;28;20214;-55
2022/03/15 09:08:39;;;;;;;7.50;3.93;;;;;;;;;;4984958;28;20469;-55
2022/03/15 09:11:05;;;;;;;6.60;3.97;;;;;;;;;;4981341;28;20502;-55
2022/03/15 09:13:31;;;;;;;6.07;4.20;;;;;;;;;;4963589;28;20191;-55
2022/03/15 09:15:58;;;;;;;11.53;4.00;;;;;;;;;;4983764;28;20411;-55
2022/03/15 09:18:27;;;;;;;7.57;4.90;;;;;;;;;;4984703;28;20477;-55
2022/03/15 09:20:53;;;;;;;5.60;5.10;;;;;;;;;;4982119;28;20469;-55
2022/03/15 09:23:19;;;;;;;6.33;5.73;;;;;;;;;;4981274;28;20443;-55
2022/03/15 09:25:45;;;;;;;5.30;4.80;;;;;;;;;;4982240;28;20490;-55
2022/03/15 09:28:11;;;;;;;5.30;4.80;;;;;;;;;;4984176;28;20442;-55
2022/03/15 09:30:37;;;;;;;8.63;5.47;;;;;;;;;;4983928;28;20461;-55
2022/03/15 09:33:03;;;;;;;12.97;4.37;;;;;;;;;;4981035;28;20427;-55
2022/03/15 09:35:29;;;;;;;5.83;5.03;;;;;;;;;;4980551;28;20435;-55
2022/03/15 09:37:56;;;;;;;5.03;4.53;;;;;;;;;;4983462;28;20430;-55
2022/03/15 09:40:26;;;;;;;7.33;4.70;;;;;;;;;;4984064;28;20419;-55
2022/03/15 09:42:57;;;;;;;5.03;4.63;;;;;;;;;;4981873;28;20513;-55
2022/03/15 09:45:23;;;;;;;15.60;5.83;;;;;;;;;;4980570;28;20427;-55
2022/03/15 09:47:56;;;;;;;4.77;4.23;;;;;;;;;;4982577;28;20446;-55
2022/03/15 09:50:24;;;;;;;4.67;4.23;;;;;;;;;;4983766;28;20823;-55
2022/03/15 09:52:50;;;;;;;5.73;5.20;;;;;;;;;;4981772;28;20473;-55
2022/03/15 09:55:16;;;;;;;7.10;4.60;;;;;;;;;;4980743;28;20424;-55
2022/03/15 09:57:42;;;;;;;7.83;4.77;;;;;;;;;;4988229;28;20422;-55
2022/03/15 10:00:13;;;;;;;6.37;4.80;;;;;;;;;;4980174;28;20434;-55
2022/03/15 10:02:43;;;;;;;8.17;4.93;;;;;;;;;;4980898;28;21218;-55
2022/03/15 10:05:09;;;;;;;6.07;4.10;;;;;;;;;;4983565;28;20437;-55
2022/03/15 10:07:36;;;;;;;11.93;4.03;;;;;;;;;;4983828;28;20435;-55
2022/03/15 10:10:03;;;;;;;6.60;4.67;;;;;;;;;;4980107;28;20820;-55
2022/03/15 10:12:29;;;;;;;7.63;5.00;;;;;;;;;;4979531;28;20426;-55
2022/03/15 10:14:56;;;;;;;4.37;3.97;;;;;;;;;;4980897;28;20465;-55
2022/03/15 10:17:22;;;;;;;5.10;4.60;;;;;;;;;;4962711;28;20431;-55
2022/03/15 10:19:56;;;;;;;5.80;3.90;;;;;;;;;;4981834;28;20971;-55
2022/03/15 10:22:26;;;;;;;9.30;5.50;;;;;;;;;;4983609;28;20430;-55
2022/03/15 10:24:53;;;;;;;4.37;4.00;;;;;;;;;;4981285;28;20438;-55
2022/03/15 10:27:19;;;;;;;3.73;3.17;;;;;;;;;;4979992;28;20435;-55
2022/03/15 10:29:47;;;;;;;6.37;3.90;;;;;;;;;;4981193;28;20483;-55
2022/03/15 10:32:13;;;;;;;3.63;3.00;;;;;;;;;;4983373;28;20418;-55
2022/03/15 10:34:39;;;;;;;3.23;3.03;;;;;;;;;;4982939;28;20488;-55
2022/03/15 10:37:05;;;;;;;8.57;3.17;;;;;;;;;;4979626;28;20817;-55
2022/03/15 10:39:31;;;;;;;6.70;3.53;;;;;;;;;;4980038;28;20446;-55
2022/03/15 10:41:57;;;;;;;7.43;3.80;;;;;;;;;;4982699;28;20457;-55
2022/03/15 10:44:23;;;;;;;2.70;2.50;;;;;;;;;;4983175;28;20415;-55
2022/03/15 10:47:04;;;;;;;10.63;3.50;;;;;;;;;;4980708;28;20423;-55
2022/03/15 10:49:31;;;;;;;7.70;2.90;;;;;;;;;;4979795;28;20450;-55
2022/03/15 10:51:57;;;;;;;5.73;3.80;;;;;;;;;;4982545;28;20514;-55
2022/03/15 10:54:27;;;;;;;5.77;2.80;;;;;;;;;;4965607;28;20836;-55
2022/03/15 10:56:59;;;;;;;2.73;2.53;;;;;;;;;;4982991;28;20426;-55
2022/03/15 10:59:25;;;;;;;4.20;3.80;;;;;;;;;;4983044;28;20947;-55
2022/03/15 11:01:52;;;;;;;5.00;2.70;;;;;;;;;;4980984;28;20430;-55
2022/03/15 11:04:18;;;;;;;3.37;2.70;;;;;;;;;;4979634;28;20534;-55
2022/03/15 11:06:45;;;;;;;3.07;2.83;;;;;;;;;;4980801;28;20423;-55
2022/03/15 11:09:15;;;;;;;2.83;2.73;;;;;;;;;;4981708;28;20419;-55
2022/03/15 11:11:42;;;;;;;3.87;3.00;;;;;;;;;;4980175;28;20438;-55
2022/03/15 11:14:10;;;;;;;5.60;3.50;;;;;;;;;;4982853;28;20434;-55
2022/03/15 11:16:37;;;;;;;4.40;3.07;;;;;;;;;;4982743;28;20469;-55
2022/03/15 11:19:04;;;;;;;7.13;3.47;;;;;;;;;;4962089;28;20869;-55
2022/03/15 11:21:33;;;;;;;5.80;2.90;;;;;;;;;;4979483;28;20423;-55
2022/03/15 11:24:00;;;;;;;8.93;3.20;;;;;;;;;;4982740;28;20414;-55
2022/03/15 11:26:29;;;;;;;7.07;5.20;;;;;;;;;;4982719;28;20505;-55
2022/03/15 11:28:56;;;;;;;9.73;3.93;;;;;;;;;;4980096;28;20418;-55
2022/03/15 11:31:23;;;;;;;4.33;3.20;;;;;;;;;;4979207;28;20980;-56
2022/03/15 11:33:50;;;;;;;3.47;3.27;;;;;;;;;;4981334;28;20800;-55
2022/03/15 11:36:17;;;;;;;4.00;3.30;;;;;;;;;;4982780;28;20453;-55
2022/03/15 11:38:43;;;;;;;8.73;4.30;;;;;;;;;;4981762;28;21034;-55
2022/03/15 11:41:10;;;;;;;7.63;3.40;;;;;;;;;;4979176;28;20438;-55
2022/03/15 11:44:00;;;;;;;4.20;3.10;;;;;;;;;;4979312;28;20427;-55
2022/03/15 11:46:29;;;;;;;3.83;3.17;;;;;;;;;;4982691;28;20430;-55
2022/03/15 11:49:15;;;;;;;6.93;3.50;;;;;;;;;;4980160;28;20792;-55
2022/03/15 11:51:41;;;;;;;2.90;2.70;;;;;;;;;;4979534;28;20498;-55
2022/03/15 11:54:15;;;;;;;3.57;3.27;;;;;;;;;;4982435;28;20991;-55
2022/03/15 11:56:48;;;;;;;7.40;3.50;;;;;;;;;;4982478;28;20178;-55
2022/03/15 11:59:17;;;;;;;5.97;3.20;;;;;;;;;;4984598;28;20453;-55
2022/03/15 12:01:47;;;;;;;3.97;3.67;;;;;;;;;;4985033;28;20422;-55
2022/03/15 12:04:14;;;;;;;4.63;3.80;;;;;;;;;;4982782;28;20481;-55
2022/03/15 12:06:50;;;;;;;5.30;3.63;;;;;;;;;;4982907;28;20427;-55
2022/03/15 12:09:20;;;;;;;9.33;3.97;;;;;;;;;;4984001;28;20430;-55
2022/03/15 12:11:46;;;;;;;4.73;3.97;;;;;;;;;;4983858;28;20442;-55
2022/03/15 12:14:16;;;;;;;7.43;3.90;;;;;;;;;;4985615;28;20892;-55
2022/03/15 12:16:43;;;;;;;11.67;5.13;;;;;;;;;;4984773;28;20406;-55
2022/03/15 12:19:14;;;;;;;6.73;3.27;;;;;;;;;;4982483;28;20921;-55
2022/03/15 12:21:49;;;;;;;7.30;4.13;;;;;;;;;;4982787;28;20427;-55
2022/03/15 12:24:19;;;;;;;6.67;3.90;;;;;;;;;;4985525;28;20505;-55
2022/03/15 12:26:58;;;;;;;3.90;3.17;;;;;;;;;;4984253;28;20421;-55
2022/03/15 12:29:26;;;;;;;3.80;3.13;;;;;;;;;;4982067;28;20419;-55
2022/03/15 12:31:53;;;;;;;4.87;3.13;;;;;;;;;;4984337;28;20430;-55
2022/03/15 12:34:19;;;;;;;5.10;3.37;;;;;;;;;;4985661;28;20951;-55
2022/03/15 12:36:50;;;;;;;3.90;3.37;;;;;;;;;;4984154;28;20454;-55
2022/03/15 12:39:20;;;;;;;2.63;2.43;;;;;;;;;;4981984;28;20506;-55
2022/03/15 12:41:47;;;;;;;3.93;3.60;;;;;;;;;;4983327;28;20427;-55
2022/03/15 12:44:14;;;;;;;4.43;3.00;;;;;;;;;;4985032;28;20422;-55
2022/03/15 12:46:41;;;;;;;5.37;3.23;;;;;;;;;;4984551;28;20430;-55
2022/03/15 12:49:13;;;;;;;5.50;3.10;;;;;;;;;;4981892;28;20435;-55
2022/03/15 12:51:43;;;;;;;4.53;3.50;;;;;;;;;;4964535;28;20848;-55
2022/03/15 12:54:13;;;;;;;3.43;3.23;;;;;;;;;;4984806;28;20469;-55
2022/03/15 12:56:49;;;;;;;8.23;3.40;;;;;;;;;;4984927;28;20444;-55
2022/03/15 12:59:20;;;;;;;4.70;3.93;;;;;;;;;;4967557;28;20956;-55
2022/03/15 13:01:47;;;;;;;4.30;4.00;;;;;;;;;;4983820;28;20510;-55
2022/03/15 13:04:13;;;;;;;8.90;3.80;;;;;;;;;;4981352;28;20793;-55
2022/03/15 13:06:41;;;;;;;4.40;4.00;;;;;;;;;;4981996;28;20424;-55
2022/03/15 13:09:08;;;;;;;10.00;4.00;;;;;;;;;;4983848;28;20426;-55
2022/03/15 13:11:43;;;;;;;9.90;3.40;;;;;;;;;;4980739;28;20614;-55
2022/03/15 13:14:10;;;;;;;7.07;3.33;;;;;;;;;;4984281;28;20454;-55
2022/03/15 13:16:36;;;;;;;4.77;4.47;;;;;;;;;;4984594;28;20436;-55
2022/03/15 13:19:02;;;;;;;8.60;4.27;;;;;;;;;;4971387;28;20851;-55
2022/03/15 13:21:33;;;;;;;9.47;4.07;;;;;;;;;;4981559;28;20427;-55
2022/03/15 13:24:07;;;;;;;5.70;4.30;;;;;;;;;;4984471;28;20438;-55
2022/03/15 13:26:33;;;;;;;6.53;4.90;;;;;;;;;;4985162;28;20422;-55
2022/03/15 13:28:59;;;;;;;11.13;4.50;;;;;;;;;;4981320;28;20431;-55
2022/03/15 13:31:25;;;;;;;5.33;4.57;;;;;;;;;;4981124;28;20462;-55
2022/03/15 13:33:53;;;;;;;4.10;3.53;;;;;;;;;;4981592;28;20441;-55
2022/03/15 13:36:19;;;;;;;7.30;4.03;;;;;;;;;;4966832;28;20430;-55
2022/03/15 13:38:48;;;;;;;9.13;5.30;;;;;;;;;;4982934;28;20424;-54
2022/03/15 13:41:15;;;;;;;8.47;5.20;;;;;;;;;;4980784;28;20434;-55
2022/03/15 13:43:43;;;;;;;8.27;5.43;;;;;;;;;;4981300;28;20537;-55
2022/03/15 13:46:10;;;;;;;6.50;4.87;;;;;;;;;;4984159;28;20426;-55
2022/03/15 13:48:38;;;;;;;13.57;4.70;;;;;;;;;;4966536;28;20437;-54
2022/03/15 13:51:15;;;;;;;5.30;4.70;;;;;;;;;;4984411;28;20960;-55
2022/03/15 13:53:42;;;;;;;5.33;3.90;;;;;;;;;;4983039;28;20473;-55
2022/03/15 13:56:10;;;;;;;5.63;5.10;;;;;;;;;;4983787;28;20440;-54
2022/03/15 13:58:36;;;;;;;5.10;4.40;;;;;;;;;;4983701;28;20454;-54
2022/03/15 14:01:07;;;;;;;4.73;3.90;;;;;;;;;;4983788;28;20422;-54
2022/03/15 14:03:34;;;;;;;7.17;4.60;;;;;;;;;;4983377;28;20433;-54
2022/03/15 14:06:03;;;;;;;5.97;4.57;;;;;;;;;;4980576;28;20415;-55
2022/03/15 14:08:30;;;;;;;4.50;4.20;;;;;;;;;;4982385;28;20517;-54
2022/03/15 14:10:56;;;;;;;5.43;4.80;;;;;;;;;;4963564;28;20815;-54
2022/03/15 14:13:23;;;;;;;8.63;4.87;;;;;;;;;;4979975;28;20423;-54
2022/03/15 14:15:53;;;;;;;4.70;4.30;;;;;;;;;;4981943;28;20423;-55
2022/03/15 14:18:26;;;;;;;5.20;4.30;;;;;;;;;;4983345;28;20496;-54
2022/03/15 14:20:52;;;;;;;8.00;4.40;;;;;;;;;;4981508;28;20573;-54
2022/03/15 14:23:18;;;;;;;5.60;4.67;;;;;;;;;;4961837;28;20801;-54
2022/03/15 14:25:45;;;;;;;6.87;4.73;;;;;;;;;;4981228;28;20431;-54
2022/03/15 14:28:15;;;;;;;4.20;3.77;;;;;;;;;;4983044;28;20509;-54
2022/03/15 14:30:43;;;;;;;5.13;4.47;;;;;;;;;;4982538;28;20620;-54
2022/03/15 14:33:20;;;;;;;11.03;4.00;;;;;;;;;;4962640;28;20513;-55
2022/03/15 14:35:46;;;;;;;7.03;4.87;;;;;;;;;;4981302;28;20780;-54